To NAV CANADA Home Page Login to a new session Search on AWWS site Feedback and Comments Disclaimer Vers la page française équivalente Tips FAQ What's new on the site To the Forecasts and Observations / NOTAM section To "File a Flight Plan" website Publications and other links Update of the User's profile FIC Telephone Numbers My Weather Data Folder Route Weather Data Regional Weather Data Local Weather Data To the Forecasts and Observations / NOTAM section
Request Generated 09/29/2016 at 06:41:30 UTC . Weather information available at that time is displayed.

METAR/TAF

SARNIA (CHRIS HADFIELD)/ON    (show WxCam)

METAR CYZR 290600Z AUTO 08013G19KT 9SM OVC140 17/13 A3006 RMK SLP179
DENSITY ALT 800FT=
METAR CYZR 290500Z AUTO 09011G16KT 9SM OVC140 17/13 A3005 RMK SLP178
DENSITY ALT 800FT=
METAR CYZR 290400Z AUTO 06011KT 9SM OVC130 17/13 A3005 RMK SLP178
DENSITY ALT 700FT=

*** REMARK        : Forecast period has ended; this was the last TAF issued
*** REMARQUE : La période de prévision est échue; ceci était le dernier TAF qui a été émis
TAF AMD CYZR 282337Z 2823/2902 05008KT P6SM SCT050 OVC120 TEMPO
2823/2902 VRB20G35KT 2SM TSRA BR BKN020 OVC050CB
RMK FCST BASED ON AUTO OBS. NXT FCST WILL BE ISSUED AT 291145Z=
Your time UTC time
Weather data provided by Environment Canada and NAV CANADA